createdAt,value
2022-08-22T00:01:07.646Z,100436.63
2022-08-22T00:02:43.289Z,100392.69
2022-08-22T00:02:49.565Z,100406.28
2022-08-22T00:03:01.247Z,100365.53
2022-08-22T00:04:23.745Z,100430.03
2022-08-22T00:07:24.511Z,100432.69
2022-08-22T00:09:52.237Z,100433.06
2022-08-22T00:12:29.465Z,100423.84
2022-08-22T00:15:42.300Z,100432.69
2022-08-22T00:18:42.785Z,100428.16
2022-08-22T00:21:33.011Z,100421.00
2022-08-22T00:24:39.545Z,100418.56
2022-08-22T00:27:32.536Z,100416.69
2022-08-22T00:30:15.739Z,100409.34
2022-08-22T00:32:49.522Z,100412.19
2022-08-22T00:35:45.170Z,100416.47
2022-08-22T00:38:23.858Z,100425.44
2022-08-22T00:41:04.163Z,100422.78
2022-08-22T00:43:33.824Z,100414.00
2022-08-22T00:46:34.240Z,100417.09
2022-08-22T00:49:40.982Z,100426.63
2022-08-22T00:52:25.706Z,100414.38
2022-08-22T00:55:13.657Z,100420.94
2022-08-22T00:58:16.525Z,100422.16
2022-08-22T01:00:53.152Z,100418.81
2022-08-22T01:03:44.139Z,100415.38
2022-08-22T01:06:53.114Z,100423.72
2022-08-22T01:09:34.527Z,100416.50
2022-08-22T01:12:48.486Z,100421.56
2022-08-22T01:15:25.691Z,100424.22
2022-08-22T01:18:21.693Z,100419.09
2022-08-22T01:21:12.833Z,100418.94
2022-08-22T01:24:25.091Z,100418.28
2022-08-22T01:27:12.124Z,100407.88
2022-08-22T01:30:09.667Z,100412.53
2022-08-22T01:33:24.280Z,100413.38
2022-08-22T01:36:18.433Z,100406.00
2022-08-22T01:39:14.936Z,100405.19
2022-08-22T01:42:03.005Z,100402.47
2022-08-22T01:45:15.421Z,100397.97
2022-08-22T01:48:03.923Z,100390.59
2022-08-22T01:50:58.536Z,100403.06
2022-08-22T01:53:43.930Z,100397.31
2022-08-22T01:56:22.955Z,100395.03
2022-08-22T01:59:12.453Z,100398.91
2022-08-22T02:02:16.698Z,100401.75
2022-08-22T02:05:10.259Z,100411.63
2022-08-22T02:08:12.874Z,100408.63
2022-08-22T02:11:10.740Z,100407.66
2022-08-22T02:14:05.262Z,100409.78
2022-08-22T02:16:52.731Z,100407.72
2022-08-22T02:19:51.447Z,100410.28
2022-08-22T02:22:37.846Z,100405.97
2022-08-22T02:26:02.273Z,100405.59
2022-08-22T02:29:10.149Z,100413.81
2022-08-22T02:31:45.007Z,100406.06
2022-08-22T02:34:26.797Z,100399.31
2022-08-22T02:37:05.842Z,100393.69
2022-08-22T02:39:39.378Z,100389.63
2022-08-22T02:42:26.721Z,100393.47
2022-08-22T02:45:20.078Z,100398.16
2022-08-22T02:48:17.880Z,100398.78
2022-08-22T02:50:59.708Z,100394.09
2022-08-22T02:53:48.492Z,100395.22
2022-08-22T02:56:25.308Z,100389.63
2022-08-22T02:59:19.447Z,100394.91
2022-08-22T03:01:47.351Z,100392.25
2022-08-22T03:04:32.570Z,100390.25
2022-08-22T03:07:19.947Z,100390.25
2022-08-22T03:09:58.224Z,100384.88
2022-08-22T03:12:56.990Z,100399.19
2022-08-22T03:15:52.122Z,100396.78
2022-08-22T03:18:48.501Z,100394.44
2022-08-22T03:21:45.839Z,100394.31
2022-08-22T03:24:51.398Z,100392.09
2022-08-22T03:27:41.608Z,100391.66
2022-08-22T03:30:38.372Z,100401.56
2022-08-22T03:33:25.215Z,100397.66
2022-08-22T03:36:19.367Z,100403.59
2022-08-22T03:39:19.189Z,100395.09
2022-08-22T03:42:17.942Z,100398.94
2022-08-22T03:45:15.637Z,100401.16
2022-08-22T03:48:13.345Z,100401.97
2022-08-22T03:50:55.014Z,100402.78
2022-08-22T03:53:49.695Z,100405.03
2022-08-22T03:56:54.276Z,100406.97
2022-08-22T03:59:50.230Z,100409.31
2022-08-22T04:02:48.687Z,100411.53
2022-08-22T04:05:44.028Z,100415.78
2022-08-22T04:08:26.289Z,100412.19
2022-08-22T04:11:17.373Z,100410.00
2022-08-22T04:14:35.983Z,100409.19
2022-08-22T04:17:55.542Z,100420.34
2022-08-22T04:21:01.655Z,100417.78
2022-08-22T04:24:11.046Z,100419.69
2022-08-22T04:26:49.873Z,100419.53
2022-08-22T04:29:28.540Z,100419.34
2022-08-22T04:32:39.303Z,100417.88
2022-08-22T04:35:13.739Z,100420.09
2022-08-22T04:37:49.232Z,100421.72
2022-08-22T04:40:34.944Z,100423.81
2022-08-22T04:43:16.176Z,100425.28
2022-08-22T04:45:59.886Z,100440.13
2022-08-22T04:48:31.864Z,100431.25
2022-08-22T04:51:13.084Z,100442.13
2022-08-22T04:53:48.808Z,100429.31
2022-08-22T04:57:05.732Z,100435.22
2022-08-22T04:59:33.678Z,100428.97
2022-08-22T05:02:06.566Z,100422.81
2022-08-22T05:04:43.742Z,100433.72
2022-08-22T05:07:26.112Z,100430.00
2022-08-22T05:10:11.775Z,100441.13
2022-08-22T05:12:45.331Z,100448.97
2022-08-22T05:15:51.300Z,100436.09
2022-08-22T05:18:29.960Z,100433.53
2022-08-22T05:21:02.290Z,100437.78
2022-08-22T05:23:43.144Z,100443.25
2022-08-22T05:26:13.925Z,100441.13
2022-08-22T05:28:53.119Z,100433.56
2022-08-22T05:31:40.730Z,100436.25
2022-08-22T05:34:24.812Z,100440.94
2022-08-22T05:37:08.280Z,100442.69
2022-08-22T05:39:37.912Z,100438.94
2022-08-22T05:42:12.708Z,100436.28
2022-08-22T05:44:39.825Z,100439.19
2022-08-22T05:47:27.610Z,100437.69
2022-08-22T05:50:19.549Z,100440.56
2022-08-22T05:53:27.162Z,100446.22
2022-08-22T05:56:44.083Z,100450.41
2022-08-22T05:59:32.977Z,100454.16
2022-08-22T06:02:25.031Z,100457.34
2022-08-22T06:04:58.973Z,100459.47
2022-08-22T06:07:35.930Z,100459.31
2022-08-22T06:10:21.551Z,100456.22
2022-08-22T06:13:15.829Z,100454.06
2022-08-22T06:16:05.839Z,100456.94
2022-08-22T06:18:35.226Z,100460.53
2022-08-22T06:21:12.782Z,100460.66
2022-08-22T06:23:56.717Z,100471.41
2022-08-22T06:26:29.072Z,100467.91
2022-08-22T06:28:59.800Z,100464.81
2022-08-22T06:31:32.973Z,100465.50
2022-08-22T06:34:24.750Z,100473.78
2022-08-22T06:36:53.386Z,100484.03
2022-08-22T06:39:34.807Z,100491.69
2022-08-22T06:42:16.278Z,100488.31
2022-08-22T06:44:57.815Z,100485.34
2022-08-22T06:47:33.234Z,100489.16
2022-08-22T06:50:07.584Z,100487.50
2022-08-22T06:53:05.665Z,100494.09
2022-08-22T06:55:35.040Z,100484.91
2022-08-22T06:58:13.083Z,100487.00
2022-08-22T07:00:43.349Z,100486.56
2022-08-22T07:03:20.340Z,100494.69
2022-08-22T07:05:47.466Z,100497.13
2022-08-22T07:08:20.766Z,100500.19
2022-08-22T07:11:28.896Z,100501.44
2022-08-22T07:14:02.357Z,100501.16
2022-08-22T07:16:52.066Z,100497.94
2022-08-22T07:19:38.644Z,100490.88
2022-08-22T07:22:27.135Z,100497.97
2022-08-22T07:25:14.838Z,100497.47
2022-08-22T07:28:16.160Z,100494.69
2022-08-22T07:31:01.556Z,100486.66
2022-08-22T07:33:45.553Z,100493.16
2022-08-22T07:36:31.786Z,100496.72
2022-08-22T07:39:34.734Z,100492.84
2022-08-22T07:42:33.036Z,100501.16
2022-08-22T07:45:13.831Z,100492.16
2022-08-22T07:48:08.556Z,100499.00
2022-08-22T07:51:01.463Z,100498.19
2022-08-22T07:54:01.997Z,100497.34
2022-08-22T07:56:42.234Z,100495.63
2022-08-22T07:59:19.170Z,100496.50
2022-08-22T08:01:50.584Z,100495.13
2022-08-22T08:04:26.305Z,100499.78
2022-08-22T08:06:58.390Z,100498.31
2022-08-22T08:09:32.936Z,100494.19
2022-08-22T08:12:02.800Z,100495.91
2022-08-22T08:14:30.914Z,100491.25
2022-08-22T08:17:06.003Z,100494.38
2022-08-22T08:19:41.058Z,100497.44
2022-08-22T08:22:16.053Z,100492.69
2022-08-22T08:24:45.127Z,100503.56
2022-08-22T08:27:36.448Z,100502.97
2022-08-22T08:30:15.628Z,100511.34
2022-08-22T08:32:57.598Z,100516.53
2022-08-22T08:36:02.418Z,100510.91
2022-08-22T08:38:38.054Z,100505.59
2022-08-22T08:41:42.508Z,100515.50
2022-08-22T08:44:41.240Z,100508.03
2022-08-22T08:47:46.441Z,100502.06
2022-08-22T08:50:35.516Z,100515.66
2022-08-22T08:53:38.907Z,100513.81
2022-08-22T08:56:40.387Z,100518.16
2022-08-22T08:59:56.828Z,100513.41
2022-08-22T09:02:33.110Z,100508.19
2022-08-22T09:05:12.545Z,100505.84
2022-08-22T09:07:51.352Z,100511.72
2022-08-22T09:10:53.089Z,100505.31
2022-08-22T09:13:54.005Z,100513.03
2022-08-22T09:16:58.473Z,100504.97
2022-08-22T09:20:17.808Z,100508.19
2022-08-22T09:23:20.080Z,100512.22
2022-08-22T09:26:05.737Z,100507.88
2022-08-22T09:28:55.639Z,100498.72
2022-08-22T09:32:16.954Z,100496.28
2022-08-22T09:35:28.591Z,100496.34
2022-08-22T09:38:08.025Z,100492.91
2022-08-22T09:40:50.221Z,100489.69
2022-08-22T09:43:28.212Z,100483.09
2022-08-22T09:46:32.280Z,100483.31
2022-08-22T09:49:14.320Z,100476.50
2022-08-22T09:52:33.239Z,100477.22
2022-08-22T09:55:39.974Z,100468.22
2022-08-22T09:58:51.418Z,100470.66
2022-08-22T10:02:15.726Z,100464.16
2022-08-22T10:05:07.074Z,100464.50
2022-08-22T10:08:07.183Z,100457.66
2022-08-22T10:11:12.705Z,100458.91
2022-08-22T10:13:58.888Z,100446.41
2022-08-22T10:16:59.805Z,100432.94
2022-08-22T10:19:41.423Z,100435.00
2022-08-22T10:22:22.898Z,100435.03
2022-08-22T10:24:55.507Z,100425.75
2022-08-22T10:27:53.265Z,100415.13
2022-08-22T10:30:47.111Z,100409.72
2022-08-22T10:33:33.756Z,100410.66
2022-08-22T10:36:13.314Z,100405.69
2022-08-22T10:38:58.254Z,100396.28
2022-08-22T10:41:38.535Z,100398.91
2022-08-22T10:44:35.660Z,100399.75
2022-08-22T10:47:12.326Z,100393.56
2022-08-22T10:49:55.037Z,100399.75
2022-08-22T10:52:33.093Z,100390.38
2022-08-22T10:55:09.993Z,100381.53
2022-08-22T10:58:00.359Z,100381.34
2022-08-22T11:00:54.164Z,100377.69
2022-08-22T11:03:57.855Z,100382.72
2022-08-22T11:06:36.902Z,100371.19
2022-08-22T11:09:37.113Z,100375.81
2022-08-22T11:12:37.277Z,100375.22
2022-08-22T11:15:49.584Z,100373.53
2022-08-22T11:19:15.144Z,100370.69
2022-08-22T11:22:20.848Z,100366.50
2022-08-22T11:25:26.888Z,100364.63
2022-08-22T11:28:31.022Z,100363.13
2022-08-22T11:31:23.954Z,100358.41
2022-08-22T11:34:14.915Z,100361.19
2022-08-22T11:37:11.560Z,100358.69
2022-08-22T11:40:06.522Z,100357.59
2022-08-22T11:43:22.219Z,100350.47
2022-08-22T11:45:56.432Z,100349.44
2022-08-22T11:48:41.093Z,100344.09
2022-08-22T11:51:43.426Z,100343.81
2022-08-22T11:54:25.868Z,100342.31
2022-08-22T11:57:21.808Z,100345.75
2022-08-22T12:00:13.056Z,100346.66
2022-08-22T12:03:17.850Z,100337.91
2022-08-22T12:06:06.124Z,100339.59
2022-08-22T12:08:35.299Z,100337.47
2022-08-22T12:11:08.952Z,100338.56
2022-08-22T12:14:03.964Z,100331.59
2022-08-22T12:17:18.935Z,100326.22
2022-08-22T12:20:37.382Z,100331.19
2022-08-22T12:23:55.586Z,100314.78
2022-08-22T12:27:02.405Z,100319.78
2022-08-22T12:29:45.484Z,100318.91
2022-08-22T12:32:44.074Z,100311.47
2022-08-22T12:35:34.261Z,100312.88
2022-08-22T12:38:54.785Z,100314.53
2022-08-22T12:42:20.272Z,100311.75
2022-08-22T12:45:13.170Z,100312.44
2022-08-22T12:48:29.356Z,100311.19
2022-08-22T12:51:27.658Z,100305.03
2022-08-22T12:54:26.752Z,100303.88
2022-08-22T12:57:24.305Z,100300.69
2022-08-22T13:00:06.617Z,100292.94
2022-08-22T13:02:36.159Z,100293.56
2022-08-22T13:05:19.723Z,100290.59
2022-08-22T13:08:00.269Z,100294.06
2022-08-22T13:10:46.487Z,100296.56
2022-08-22T13:13:42.807Z,100293.41
2022-08-22T13:16:25.683Z,100284.44
2022-08-22T13:18:59.169Z,100289.56
2022-08-22T13:21:37.465Z,100284.19
2022-08-22T13:24:16.873Z,100281.25
2022-08-22T13:26:57.953Z,100277.81
2022-08-22T13:29:42.916Z,100281.03
2022-08-22T13:32:44.424Z,100281.25
2022-08-22T13:35:33.641Z,100274.41
2022-08-22T13:38:13.814Z,100275.88
2022-08-22T13:40:47.649Z,100275.44
2022-08-22T13:43:23.177Z,100272.06
2022-08-22T13:46:06.695Z,100278.53
2022-08-22T13:49:00.620Z,100275.09
2022-08-22T13:51:56.353Z,100271.41
2022-08-22T13:54:55.451Z,100265.56
2022-08-22T13:57:37.083Z,100266.88
2022-08-22T14:00:28.552Z,100263.09
2022-08-22T14:03:16.216Z,100254.66
2022-08-22T14:05:49.279Z,100261.16
2022-08-22T14:08:34.069Z,100256.47
2022-08-22T14:11:12.910Z,100255.88
2022-08-22T14:14:03.775Z,100261.22
2022-08-22T14:16:51.449Z,100259.84
2022-08-22T14:19:53.180Z,100256.00
2022-08-22T14:22:31.886Z,100255.81
2022-08-22T14:25:22.317Z,100246.72
2022-08-22T14:28:06.275Z,100245.34
2022-08-22T14:30:54.206Z,100246.59
2022-08-22T14:33:28.422Z,100238.22
2022-08-22T14:36:00.379Z,100238.56
2022-08-22T14:38:31.820Z,100238.34
2022-08-22T14:41:52.888Z,100225.28
2022-08-22T14:44:50.171Z,100232.91
2022-08-22T14:48:14.233Z,100219.69
2022-08-22T14:51:12.668Z,100227.06
2022-08-22T14:53:40.433Z,100228.25
2022-08-22T14:56:27.721Z,100224.25
2022-08-22T14:59:09.008Z,100219.69
2022-08-22T15:02:13.178Z,100222.63
2022-08-22T15:04:47.441Z,100226.13
2022-08-22T15:07:36.524Z,100215.00
2022-08-22T15:10:33.343Z,100218.41
2022-08-22T15:13:07.843Z,100217.09
2022-08-22T15:15:52.522Z,100210.16
2022-08-22T15:18:27.795Z,100211.41
2022-08-22T15:21:30.138Z,100217.34
2022-08-22T15:24:07.894Z,100214.25
2022-08-22T15:26:50.149Z,100213.38
2022-08-22T15:29:23.530Z,100211.28
2022-08-22T15:31:54.079Z,100208.44
2022-08-22T15:34:39.948Z,100217.03
2022-08-22T15:37:19.404Z,100202.06
2022-08-22T15:40:12.671Z,100206.91
2022-08-22T15:42:51.003Z,100209.59
2022-08-22T15:45:38.690Z,100207.13
2022-08-22T15:48:25.542Z,100206.09
2022-08-22T15:51:10.174Z,100197.06
2022-08-22T15:54:25.189Z,100201.06
2022-08-22T15:56:52.744Z,100194.06
2022-08-22T15:59:48.005Z,100189.50
2022-08-22T16:02:42.943Z,100195.63
2022-08-22T16:05:10.498Z,100191.16
2022-08-22T16:07:58.089Z,100186.63
2022-08-22T16:10:25.011Z,100186.91
2022-08-22T16:13:34.753Z,100187.63
2022-08-22T16:16:24.946Z,100181.69
2022-08-22T16:18:51.779Z,100182.88
2022-08-22T16:21:22.110Z,100183.59
2022-08-22T16:23:56.206Z,100188.44
2022-08-22T16:26:31.690Z,100190.06
2022-08-22T16:29:12.514Z,100183.66
2022-08-22T16:31:44.230Z,100186.91
2022-08-22T16:34:17.146Z,100184.25
2022-08-22T16:37:02.855Z,100188.19
2022-08-22T16:39:51.381Z,100187.09
2022-08-22T16:42:23.872Z,100186.78
2022-08-22T16:45:04.610Z,100178.13
2022-08-22T16:48:02.140Z,100182.94
2022-08-22T16:50:40.755Z,100179.50
2022-08-22T16:53:29.433Z,100179.19
2022-08-22T16:56:52.158Z,100179.50
2022-08-22T16:59:57.403Z,100179.69
2022-08-22T17:03:22.106Z,100183.41
2022-08-22T17:06:28.437Z,100185.56
2022-08-22T17:09:14.463Z,100187.97
2022-08-22T17:12:10.671Z,100187.81
2022-08-22T17:15:07.115Z,100183.16
2022-08-22T17:17:52.619Z,100184.78
2022-08-22T17:20:48.135Z,100190.19
2022-08-22T17:23:56.211Z,100195.56
2022-08-22T17:27:04.928Z,100199.69
2022-08-22T17:30:34.038Z,100201.00
2022-08-22T17:33:54.649Z,100199.16
2022-08-22T17:37:00.759Z,100197.09
2022-08-22T17:40:10.566Z,100197.59
2022-08-22T17:43:05.966Z,100206.06
2022-08-22T17:46:05.546Z,100196.28
2022-08-22T17:48:47.891Z,100208.66
2022-08-22T17:51:58.884Z,100210.13
2022-08-22T17:54:33.668Z,100209.47
2022-08-22T17:57:09.625Z,100208.06
2022-08-22T17:59:52.530Z,100209.59
2022-08-22T18:02:26.447Z,100214.53
2022-08-22T18:05:11.749Z,100220.16
2022-08-22T18:08:38.224Z,100215.66
2022-08-22T18:11:24.881Z,100216.78
2022-08-22T18:14:08.573Z,100218.81
2022-08-22T18:16:48.655Z,100219.16
2022-08-22T18:19:36.507Z,100225.41
2022-08-22T18:22:21.360Z,100218.75
2022-08-22T18:25:05.452Z,100221.00
2022-08-22T18:28:15.056Z,100224.91
2022-08-22T18:31:02.013Z,100221.72
2022-08-22T18:33:43.874Z,100232.72
2022-08-22T18:36:31.118Z,100231.81
2022-08-22T18:39:04.118Z,100235.41
2022-08-22T18:41:55.283Z,100232.50
2022-08-22T18:44:32.724Z,100228.66
2022-08-22T18:47:21.542Z,100230.19
2022-08-22T18:49:54.372Z,100233.72
2022-08-22T18:52:27.395Z,100233.38
2022-08-22T18:55:24.631Z,100235.81
2022-08-22T18:58:35.698Z,100237.66
2022-08-22T19:01:52.748Z,100238.91
2022-08-22T19:05:08.864Z,100239.88
2022-08-22T19:08:10.957Z,100238.50
2022-08-22T19:11:13.541Z,100246.28
2022-08-22T19:14:20.582Z,100239.63
2022-08-22T19:17:38.167Z,100251.63
2022-08-22T19:20:48.197Z,100254.41
2022-08-22T19:23:41.983Z,100253.09
2022-08-22T19:26:30.240Z,100256.22
2022-08-22T19:29:01.826Z,100253.78
2022-08-22T19:31:50.602Z,100259.13
2022-08-22T19:34:29.264Z,100268.09
2022-08-22T19:37:32.188Z,100271.13
2022-08-22T19:40:11.833Z,100269.84
2022-08-22T19:42:41.508Z,100267.63
2022-08-22T19:45:26.376Z,100271.03
2022-08-22T19:48:00.015Z,100272.53
2022-08-22T19:50:34.326Z,100274.97
2022-08-22T19:53:37.303Z,100278.22
2022-08-22T19:56:30.906Z,100275.97
2022-08-22T19:59:21.562Z,100281.81
2022-08-22T20:02:07.233Z,100282.56
2022-08-22T20:05:18.659Z,100284.13
2022-08-22T20:08:38.258Z,100278.53
2022-08-22T20:11:37.805Z,100284.38
2022-08-22T20:14:30.735Z,100280.19
2022-08-22T20:17:24.484Z,100279.59
2022-08-22T20:20:17.773Z,100283.47
2022-08-22T20:23:20.469Z,100283.72
2022-08-22T20:25:52.765Z,100283.44
2022-08-22T20:28:48.777Z,100280.06
2022-08-22T20:31:26.971Z,100279.88
2022-08-22T20:34:08.538Z,100281.22
2022-08-22T20:36:36.335Z,100286.59
2022-08-22T20:39:12.596Z,100281.91
2022-08-22T20:41:42.875Z,100289.00
2022-08-22T20:44:31.640Z,100289.09
2022-08-22T20:47:12.054Z,100293.69
2022-08-22T20:49:44.118Z,100286.00
2022-08-22T20:52:34.651Z,100283.81
2022-08-22T20:55:15.151Z,100286.16
2022-08-22T20:57:51.889Z,100289.66
2022-08-22T21:00:43.642Z,100292.09
2022-08-22T21:03:37.819Z,100294.00
2022-08-22T21:06:18.173Z,100292.00
2022-08-22T21:09:07.833Z,100297.72
2022-08-22T21:11:40.616Z,100289.47
2022-08-22T21:14:27.468Z,100292.69
2022-08-22T21:16:54.408Z,100305.25
2022-08-22T21:19:27.524Z,100288.31
2022-08-22T21:22:17.345Z,100292.03
2022-08-22T21:24:45.599Z,100298.94
2022-08-22T21:27:33.072Z,100297.97
2022-08-22T21:30:04.380Z,100296.34
2022-08-22T21:32:40.769Z,100300.53
2022-08-22T21:35:23.987Z,100304.66
2022-08-22T21:37:51.122Z,100302.59
2022-08-22T21:40:32.959Z,100304.91
2022-08-22T21:43:13.173Z,100306.84
2022-08-22T21:45:41.840Z,100303.56
2022-08-22T21:48:33.461Z,100310.56
2022-08-22T21:51:44.548Z,100301.06
2022-08-22T21:54:29.214Z,100309.03
2022-08-22T21:57:00.559Z,100309.53
2022-08-22T21:59:50.741Z,100301.50
2022-08-22T22:02:28.211Z,100309.09
2022-08-22T22:04:55.464Z,100308.28
2022-08-22T22:07:24.402Z,100311.78
2022-08-22T22:09:54.633Z,100314.88
2022-08-22T22:12:23.876Z,100308.94
2022-08-22T22:14:51.167Z,100323.50
2022-08-22T22:17:19.257Z,100316.97
2022-08-22T22:19:50.227Z,100323.50
2022-08-22T22:22:17.478Z,100328.53
2022-08-22T22:24:44.480Z,100321.97
2022-08-22T22:27:16.403Z,100326.34
2022-08-22T22:29:44.055Z,100328.97
2022-08-22T22:32:10.955Z,100326.06
2022-08-22T22:34:39.090Z,100336.38
2022-08-22T22:37:08.272Z,100345.81
2022-08-22T22:39:36.808Z,100331.81
2022-08-22T22:42:05.359Z,100338.28
2022-08-22T22:44:32.431Z,100338.66
2022-08-22T22:47:02.330Z,100345.22
2022-08-22T22:49:31.070Z,100345.44
2022-08-22T22:52:01.913Z,100344.47
2022-08-22T22:54:30.317Z,100352.88
2022-08-22T22:56:58.659Z,100349.59
2022-08-22T22:59:25.733Z,100350.41
2022-08-22T23:02:04.405Z,100350.63
2022-08-22T23:04:33.662Z,100355.97
2022-08-22T23:07:01.097Z,100353.75
2022-08-22T23:09:38.086Z,100356.47
2022-08-22T23:12:06.468Z,100357.31
2022-08-22T23:14:34.057Z,100354.81
2022-08-22T23:17:02.216Z,100356.69
2022-08-22T23:19:29.414Z,100358.22
2022-08-22T23:21:59.241Z,100364.38
2022-08-22T23:24:30.995Z,100368.94
2022-08-22T23:26:58.896Z,100368.56
2022-08-22T23:29:26.588Z,100378.84
2022-08-22T23:31:59.892Z,100378.25
2022-08-22T23:34:41.345Z,100380.09
2022-08-22T23:37:08.231Z,100381.81
2022-08-22T23:39:35.603Z,100377.47
2022-08-22T23:42:02.895Z,100374.06
2022-08-22T23:44:34.152Z,100371.19
2022-08-22T23:47:02.171Z,100361.53
2022-08-22T23:49:30.583Z,100372.22
2022-08-22T23:51:57.893Z,100366.50
2022-08-22T23:54:25.943Z,100375.94
2022-08-22T23:56:57.150Z,100384.34
2022-08-22T23:59:33.976Z,100383.00
